Startpagina
METAR-TAF:

METAR-TAF

Vliegvelden :

Khartoem, Soedan

Luchthaven van Khartoem

breedte: 15-36N, lengte: 032-33E, hoogte: 382 m

Actueel weer

Dit bericht is 31 minuten geleden gemaakt, om 04:00 UTC
Wind 9 kt uit het noorden
Temperatuur 22°C
Vochtigheid 41%
Druk 1013 hPa
Zicht 10 km of meer
geen wolken onder 1500 m en geen cumulonimbus

METAR: HSSS 140400Z 36009KT CAVOK 22/08 Q1013 NOSIG

Tijdstip: 07:31 (04:31 UTC)

Verwachting

Dit bericht is 5 uur en het 31 minuten geleden gemaakt, om 23:00 UTC
Verwachting geldig van 14 om 00 UTC tot 15 om 06 UTC
Wind 10 kt uit het noorden met uitschieters tot 20 kt
Zicht 10 km of meer
geen wolken onder 1500 m en geen cumulonimbus
Tijdelijke
van 14 om 03 UTC tot 14 om 09 UTC
Zicht: 6000 m

TAF: HSSS 132300Z 1400/1506 36010G20KT CAVOK TEMPO 1403/1409 6000

Waarnemingen en weersverwachtingen van meer dan 4000 vliegvelden (METAR en TAF).

De beschikbare stations zijn de gele en rode punten op de kaart.

Ga met uw muis naar het station om de naam te zien.

Klik dan om waarnemingen en weersverwachtingen te zien.

kaart wijzigen: klik op de groene knoppen met een zwart kruis om in te zoomen, op de groene knop met een streepje om uit te zoomen of op de groene pijlen voor aangrenzende kaarten.


METAR-TAF: